Time;durP1;ratioP1;P1;durP2;ratioP2;P2;SDS_P1;SDS_P2;PMS_P1;PMS_P2;Temp;Humidity;BMP_temperature;BMP_pressure;BME280_temperature;BME280_humidity;BME280_pressure;Samples;Min_cycle;Max_cycle;Signal;HPM_P1;HPM_P2
2022/06/15 00:00:46;;;;;;;8.73;3.77;;;20.10;92.90;;;;;;4869786;29;20822;-75
2022/06/15 00:03:20;;;;;;;10.98;3.58;;;20.30;92.80;;;;;;4871065;29;20501;-75
2022/06/15 00:05:47;;;;;;;8.57;3.58;;;20.30;92.90;;;;;;4870546;29;20105;-78
2022/06/15 00:08:15;;;;;;;5.55;3.25;;;20.40;93.30;;;;;;4869847;29;20490;-75
2022/06/15 00:10:42;;;;;;;7.90;3.95;;;20.20;93.70;;;;;;4870787;29;20049;-78
2022/06/15 00:13:10;;;;;;;8.73;3.78;;;20.10;93.90;;;;;;4872228;29;20049;-81
2022/06/15 00:15:37;;;;;;;11.75;3.78;;;20.20;94.30;;;;;;4870562;29;20136;-80
2022/06/15 00:18:04;;;;;;;8.25;3.60;;;20.10;94.70;;;;;;4879132;29;20056;-79
2022/06/15 00:20:32;;;;;;;7.90;4.20;;;20.10;95.20;;;;;;4878672;29;20045;-75
2022/06/15 00:22:59;;;;;;;8.10;4.00;;;20.20;95.40;;;;;;4877951;29;20076;-82
2022/06/15 00:25:26;;;;;;;9.57;3.83;;;20.00;95.80;;;;;;4879005;29;20049;-79
2022/06/15 00:27:54;;;;;;;9.13;3.78;;;20.00;96.60;;;;;;4877770;29;20741;-82
2022/06/15 00:30:21;;;;;;;9.23;4.03;;;19.90;97.20;;;;;;4878306;29;20041;-78
2022/06/15 00:32:49;;;;;;;14.88;4.15;;;19.70;97.70;;;;;;4879123;29;20370;-75
2022/06/15 00:35:17;;;;;;;9.60;4.45;;;19.80;97.70;;;;;;4876589;29;20045;-77
2022/06/15 00:37:45;;;;;;;13.30;4.00;;;19.80;97.70;;;;;;4875898;29;20517;-78
2022/06/15 00:40:12;;;;;;;6.78;3.30;;;19.90;97.90;;;;;;4876054;29;20052;-75
2022/06/15 00:42:40;;;;;;;11.13;3.92;;;20.00;97.70;;;;;;4876479;29;20041;-79
2022/06/15 00:45:08;;;;;;;9.60;4.07;;;19.90;98.30;;;;;;4876816;29;20049;-78
2022/06/15 00:47:39;;;;;;;6.32;3.70;;;19.80;98.10;;;;;;4876884;29;20111;-83
2022/06/15 00:50:12;;;;;;;6.35;3.55;;;19.80;98.40;;;;;;4877071;29;20080;-81
2022/06/15 00:52:57;;;;;;;9.10;3.83;;;19.80;98.50;;;;;;4877226;29;20052;-83
2022/06/15 00:55:31;;;;;;;7.28;3.47;;;19.80;98.40;;;;;;4878546;29;20068;-82
2022/06/15 00:58:03;;;;;;;9.55;4.00;;;19.80;98.10;;;;;;4878544;29;20184;-81
2022/06/15 01:00:31;;;;;;;7.97;3.75;;;19.80;98.70;;;;;;4869803;29;20101;-82
2022/06/15 01:03:00;;;;;;;7.97;3.70;;;19.70;99.10;;;;;;4860149;29;20056;-80
2022/06/15 01:05:45;;;;;;;9.82;3.60;;;19.70;99.30;;;;;;4858822;29;20057;-80
2022/06/15 01:08:34;;;;;;;8.30;4.13;;;19.70;99.10;;;;;;4844218;29;20057;-81
2022/06/15 01:11:46;;;;;;;6.45;3.80;;;19.80;99.30;;;;;;4859562;29;20093;-76
2022/06/15 01:14:26;;;;;;;7.07;4.15;;;19.70;99.00;;;;;;4848178;29;20141;-86
2022/06/15 01:17:15;;;;;;;10.70;4.53;;;19.70;98.80;;;;;;4860203;29;20049;-77
2022/06/15 01:20:02;;;;;;;11.30;5.80;;;19.60;99.60;;;;;;4866818;29;20105;-80
2022/06/15 01:22:51;;;;;;;9.02;4.10;;;19.40;99.90;;;;;;4872114;29;20048;-76
2022/06/15 01:25:36;;;;;;;10.88;3.53;;;19.40;99.90;;;;;;4873608;29;20442;-79
2022/06/15 01:28:21;;;;;;;7.38;3.20;;;19.20;99.70;;;;;;4864690;29;20652;-82
2022/06/15 01:31:14;;;;;;;9.18;4.18;;;19.20;99.60;;;;;;4872788;29;20059;-82
2022/06/15 01:33:58;;;;;;;7.10;3.60;;;19.30;99.50;;;;;;4862341;29;20084;-79
2022/06/15 01:36:52;;;;;;;7.72;3.92;;;19.70;99.20;;;;;;4878819;29;20451;-82
2022/06/15 01:39:28;;;;;;;9.95;3.80;;;19.70;99.50;;;;;;4877863;29;20073;-85
2022/06/15 01:42:08;;;;;;;7.00;3.65;;;19.50;99.90;;;;;;4879543;29;20540;-91
2022/06/15 01:44:43;;;;;;;9.00;4.10;;;19.60;99.90;;;;;;4879837;29;20097;-91
2022/06/15 01:47:15;;;;;;;9.50;3.63;;;19.70;99.90;;;;;;4878928;29;20045;-78
2022/06/15 01:49:49;;;;;;;10.32;3.90;;;19.80;99.90;;;;;;4879387;29;20037;-90
2022/06/15 01:52:21;;;;;;;10.77;4.20;;;19.70;99.90;;;;;;4878428;29;20048;-86
2022/06/15 01:55:00;;;;;;;7.78;5.05;;;19.70;99.90;;;;;;4878891;29;20489;-86
2022/06/15 01:57:30;;;;;;;8.80;4.38;;;19.80;99.90;;;;;;4878485;29;20072;-76
2022/06/15 02:00:23;;;;;;;10.13;5.00;;;19.50;99.90;;;;;;4878291;29;20494;-76
2022/06/15 02:03:20;;;;;;;10.77;4.00;;;19.30;99.90;;;;;;4874831;29;20064;-81
2022/06/15 02:06:06;;;;;;;13.20;4.97;;;19.30;99.90;;;;;;4878452;29;20045;-85
2022/06/15 02:08:38;;;;;;;7.97;4.80;;;19.30;99.90;;;;;;4878642;29;20113;-77
2022/06/15 02:11:20;;;;;;;11.48;4.85;;;19.20;99.90;;;;;;4878865;29;20045;-77
2022/06/15 02:14:10;;;;;;;8.93;4.93;;;19.20;99.90;;;;;;4878930;29;20406;-83
2022/06/15 02:16:42;;;;;;;9.05;4.43;;;19.20;99.90;;;;;;4878826;29;20045;-80
2022/06/15 02:19:13;;;;;;;10.52;4.72;;;19.30;99.90;;;;;;4878719;29;20048;-83
2022/06/15 02:21:43;;;;;;;12.93;4.75;;;19.30;99.90;;;;;;4878264;29;20117;-85
2022/06/15 02:24:14;;;;;;;14.45;5.05;;;19.30;99.90;;;;;;4881700;29;20455;-75
2022/06/15 02:26:42;;;;;;;9.18;4.72;;;18.90;99.90;;;;;;4880822;29;20486;-83
2022/06/15 02:29:20;;;;;;;10.15;5.30;;;18.90;99.90;;;;;;4884092;29;20080;-79
2022/06/15 02:31:48;;;;;;;8.60;4.80;;;18.90;99.90;;;;;;4865018;29;20497;-77
2022/06/15 02:34:15;;;;;;;11.02;4.70;;;18.60;99.90;;;;;;4880354;29;20075;-82
2022/06/15 02:36:43;;;;;;;11.88;5.13;;;18.70;99.90;;;;;;4881088;29;20057;-74
2022/06/15 02:39:11;;;;;;;13.85;5.28;;;18.70;99.90;;;;;;4880502;29;20106;-78
2022/06/15 02:41:38;;;;;;;15.60;5.32;;;18.80;99.90;;;;;;4880977;29;20458;-76
2022/06/15 02:44:08;;;;;;;11.10;5.10;;;18.60;99.90;;;;;;4864328;29;20382;-76
2022/06/15 02:46:42;;;;;;;13.35;5.60;;;18.60;99.90;;;;;;4880902;29;20069;-75
2022/06/15 02:49:09;;;;;;;14.55;6.00;;;18.60;99.90;;;;;;4879628;29;20084;-76
2022/06/15 02:51:58;;;;;;;10.23;5.00;;;18.60;99.90;;;;;;4881086;29;20049;-75
2022/06/15 02:54:35;;;;;;;9.00;5.13;;;18.40;99.90;;;;;;4880459;29;20045;-76
2022/06/15 02:57:02;;;;;;;12.50;5.50;;;18.50;99.90;;;;;;4880746;29;20410;-75
2022/06/15 02:59:30;;;;;;;9.55;5.20;;;18.50;99.90;;;;;;4880213;29;20121;-76
2022/06/15 03:01:57;;;;;;;9.05;5.70;;;18.60;99.90;;;;;;4878828;29;20112;-76
2022/06/15 03:04:25;;;;;;;10.52;5.50;;;18.50;99.90;;;;;;4880250;29;20083;-74
2022/06/15 03:06:52;;;;;;;13.65;5.78;;;18.30;99.90;;;;;;4880090;29;20068;-75
2022/06/15 03:09:20;;;;;;;9.07;4.90;;;18.30;99.90;;;;;;4880438;29;20454;-75
2022/06/15 03:11:47;;;;;;;10.85;5.03;;;18.30;99.90;;;;;;4879874;29;20083;-78
2022/06/15 03:14:15;;;;;;;13.48;5.25;;;18.30;99.90;;;;;;4879970;29;20052;-75
2022/06/15 03:16:47;;;;;;;10.05;5.18;;;18.30;99.90;;;;;;4880273;29;20049;-76
2022/06/15 03:19:15;;;;;;;9.98;5.20;;;18.40;99.90;;;;;;4879663;29;20120;-76
2022/06/15 03:21:42;;;;;;;8.48;5.03;;;18.60;99.90;;;;;;4879954;29;20068;-76
2022/06/15 03:24:10;;;;;;;7.43;4.50;;;18.50;99.90;;;;;;4879924;29;20045;-76
2022/06/15 03:26:37;;;;;;;7.10;3.80;;;18.40;99.90;;;;;;4880028;29;20109;-76
2022/06/15 03:29:05;;;;;;;10.63;4.47;;;18.50;99.90;;;;;;4879545;29;20105;-75
2022/06/15 03:31:33;;;;;;;7.32;3.83;;;17.90;99.90;;;;;;4879892;29;20041;-74
2022/06/15 03:34:01;;;;;;;8.68;4.65;;;17.40;99.90;;;;;;4878978;29;20386;-75
2022/06/15 03:36:28;;;;;;;9.45;5.18;;;17.70;99.90;;;;;;4879514;29;20065;-76
2022/06/15 03:38:55;;;;;;;7.97;4.68;;;18.00;99.90;;;;;;4879711;29;20097;-75
2022/06/15 03:41:23;;;;;;;9.43;4.82;;;18.00;99.90;;;;;;4879707;29;20505;-76
2022/06/15 03:43:50;;;;;;;8.65;4.65;;;18.10;99.90;;;;;;4878931;29;20053;-74
2022/06/15 03:46:18;;;;;;;9.82;4.93;;;17.70;99.90;;;;;;4879502;29;20506;-74
2022/06/15 03:48:45;;;;;;;9.40;4.75;;;17.40;99.90;;;;;;4879163;29;20088;-76
2022/06/15 03:51:13;;;;;;;9.60;4.80;;;17.50;99.90;;;;;;4879703;29;20103;-78
2022/06/15 03:53:40;;;;;;;10.23;5.18;;;17.20;99.90;;;;;;4879318;29;20045;-76
2022/06/15 03:56:08;;;;;;;8.18;4.65;;;17.10;99.90;;;;;;4878233;29;20557;-79
2022/06/15 03:58:35;;;;;;;12.25;6.05;;;17.20;99.90;;;;;;4879384;29;20057;-76
2022/06/15 04:01:03;;;;;;;14.90;5.20;;;17.20;99.90;;;;;;4879475;29;20045;-76
2022/06/15 04:03:30;;;;;;;10.27;6.10;;;17.50;99.90;;;;;;4879120;29;20695;-76
2022/06/15 04:05:59;;;;;;;9.63;5.28;;;17.40;99.90;;;;;;4878049;29;20098;-75
2022/06/15 04:08:35;;;;;;;11.70;5.05;;;18.10;99.90;;;;;;4879183;29;20085;-80
2022/06/15 04:11:11;;;;;;;7.32;4.97;;;18.60;99.90;;;;;;4862935;29;20097;-76
2022/06/15 04:13:38;;;;;;;8.63;5.38;;;18.80;99.90;;;;;;4878837;29;20136;-78
2022/06/15 04:16:08;;;;;;;9.80;4.80;;;18.80;99.90;;;;;;4879411;29;20429;-76
2022/06/15 04:18:35;;;;;;;8.43;4.50;;;18.80;99.90;;;;;;4879126;29;20057;-76
2022/06/15 04:21:03;;;;;;;11.30;5.45;;;18.70;99.90;;;;;;4879110;29;20402;-78
2022/06/15 04:23:30;;;;;;;13.43;6.03;;;18.80;99.90;;;;;;4878883;29;20459;-75
2022/06/15 04:26:00;;;;;;;16.83;6.20;;;18.90;99.90;;;;;;4879148;29;20108;-75
2022/06/15 04:28:30;;;;;;;10.13;5.55;;;19.00;99.90;;;;;;4878079;29;20047;-76
2022/06/15 04:30:58;;;;;;;11.85;5.07;;;18.70;99.90;;;;;;4878624;29;20470;-81
2022/06/15 04:33:28;;;;;;;7.57;5.18;;;18.80;99.90;;;;;;4878431;29;20088;-83
2022/06/15 04:35:57;;;;;;;11.95;4.82;;;19.00;99.90;;;;;;4877666;29;20080;-74
2022/06/15 04:38:24;;;;;;;6.60;4.25;;;18.90;99.90;;;;;;4878293;29;20049;-74
2022/06/15 04:40:52;;;;;;;8.02;4.30;;;18.40;99.90;;;;;;4877577;29;20049;-74
2022/06/15 04:43:19;;;;;;;10.82;5.57;;;18.20;99.90;;;;;;4878165;29;20041;-73
2022/06/15 04:45:46;;;;;;;15.30;8.88;;;18.50;99.90;;;;;;4877189;29;20391;-73
2022/06/15 04:48:14;;;;;;;18.52;10.35;;;18.60;99.90;;;;;;4892902;29;20460;-76
2022/06/15 04:50:41;;;;;;;16.67;9.40;;;18.60;99.90;;;;;;4878527;29;20071;-74
2022/06/15 04:53:09;;;;;;;29.77;16.23;;;18.70;99.90;;;;;;4878211;29;20053;-75
2022/06/15 04:55:36;;;;;;;32.38;20.42;;;19.00;99.90;;;;;;4878583;29;20041;-77
2022/06/15 04:58:05;;;;;;;8.63;5.38;;;19.40;99.90;;;;;;4876476;29;20502;-78
2022/06/15 05:00:36;;;;;;;6.18;3.25;;;19.40;99.90;;;;;;4877047;29;20044;-74
2022/06/15 05:03:04;;;;;;;9.02;3.60;;;19.10;99.90;;;;;;4878047;29;20144;-73
2022/06/15 05:05:32;;;;;;;9.48;4.38;;;19.20;99.90;;;;;;4877256;29;20132;-73
2022/06/15 05:08:00;;;;;;;9.07;4.40;;;19.20;99.90;;;;;;4877891;29;20044;-73
2022/06/15 05:10:28;;;;;;;7.43;4.30;;;19.40;99.90;;;;;;4869980;29;20098;-74
2022/06/15 05:12:55;;;;;;;8.38;3.92;;;19.70;99.90;;;;;;4847889;29;20085;-73
2022/06/15 05:15:23;;;;;;;8.35;3.83;;;19.70;99.90;;;;;;4859703;29;20094;-81
2022/06/15 05:17:50;;;;;;;5.70;4.25;;;19.60;99.90;;;;;;4858879;29;20547;-74
2022/06/15 05:20:18;;;;;;;6.03;3.63;;;19.40;99.90;;;;;;4859538;29;20041;-72
2022/06/15 05:22:53;;;;;;;6.90;3.50;;;19.60;99.90;;;;;;4859621;29;20073;-78
2022/06/15 05:25:21;;;;;;;7.57;3.60;;;19.80;99.90;;;;;;4859473;29;20049;-73
2022/06/15 05:27:49;;;;;;;7.50;3.03;;;20.00;99.90;;;;;;4858825;29;20121;-74
2022/06/15 05:30:16;;;;;;;6.47;3.58;;;19.90;99.90;;;;;;4858229;29;20105;-73
2022/06/15 05:32:44;;;;;;;5.93;3.53;;;19.90;99.90;;;;;;4858362;29;20081;-73
2022/06/15 05:35:11;;;;;;;5.95;3.40;;;20.10;99.90;;;;;;4842802;29;20562;-73
2022/06/15 05:37:39;;;;;;;5.32;3.20;;;20.10;99.90;;;;;;4859898;29;20439;-75
2022/06/15 05:40:07;;;;;;;7.57;3.03;;;20.10;99.90;;;;;;4859462;29;20101;-74
2022/06/15 05:42:35;;;;;;;12.90;3.47;;;20.10;99.90;;;;;;4858197;29;20428;-73
2022/06/15 05:45:03;;;;;;;6.10;3.20;;;20.30;99.90;;;;;;4858770;29;20074;-73
2022/06/15 05:47:31;;;;;;;11.32;3.78;;;20.20;99.90;;;;;;4859462;29;20129;-73
2022/06/15 05:49:59;;;;;;;7.55;3.20;;;20.30;99.90;;;;;;4857785;29;20041;-76
2022/06/15 05:52:27;;;;;;;5.82;3.22;;;20.40;99.90;;;;;;4858031;29;20070;-75
2022/06/15 05:54:56;;;;;;;9.60;3.42;;;20.60;99.90;;;;;;4858762;29;20050;-75
2022/06/15 05:57:25;;;;;;;7.80;4.50;;;20.60;99.70;;;;;;4859616;29;20467;-75
2022/06/15 05:59:55;;;;;;;21.08;7.93;;;20.70;99.90;;;;;;4862226;29;20511;-75
2022/06/15 06:02:25;;;;;;;19.02;9.02;;;20.80;99.90;;;;;;4876446;29;20080;-74
2022/06/15 06:04:53;;;;;;;18.77;7.60;;;20.90;99.90;;;;;;4881146;29;20045;-75
2022/06/15 06:07:22;;;;;;;16.92;7.15;;;20.90;99.90;;;;;;4880115;29;20402;-76
2022/06/15 06:09:49;;;;;;;17.52;7.25;;;21.00;99.90;;;;;;4879724;29;20344;-76
2022/06/15 06:12:17;;;;;;;22.58;6.15;;;21.10;99.90;;;;;;4880825;29;20505;-77
2022/06/15 06:14:46;;;;;;;13.38;5.82;;;21.10;99.90;;;;;;4881103;29;20055;-75
2022/06/15 06:17:14;;;;;;;11.85;6.32;;;21.20;99.90;;;;;;4881430;29;20036;-75
2022/06/15 06:19:41;;;;;;;12.75;5.82;;;21.00;99.90;;;;;;4881267;29;20096;-76
2022/06/15 06:22:09;;;;;;;16.38;6.13;;;21.20;99.90;;;;;;4880262;29;20064;-75
2022/06/15 06:24:36;;;;;;;8.93;5.90;;;21.00;99.90;;;;;;4880950;29;20037;-76
2022/06/15 06:27:05;;;;;;;11.68;5.65;;;21.20;99.90;;;;;;4881106;29;20045;-75
2022/06/15 06:29:34;;;;;;;9.00;4.90;;;21.20;99.90;;;;;;4880952;29;20075;-74
2022/06/15 06:32:02;;;;;;;12.93;5.60;;;21.20;99.90;;;;;;4879627;29;20037;-75
2022/06/15 06:34:32;;;;;;;9.93;4.70;;;21.30;99.90;;;;;;4880704;29;20093;-75
2022/06/15 06:37:00;;;;;;;8.65;4.60;;;21.20;99.90;;;;;;4881032;29;20123;-76
2022/06/15 06:39:30;;;;;;;11.75;5.30;;;21.20;99.90;;;;;;4880404;29;20195;-76
2022/06/15 06:42:00;;;;;;;8.43;4.80;;;21.30;99.90;;;;;;4880625;29;20109;-76
2022/06/15 06:44:27;;;;;;;7.78;4.65;;;21.30;99.90;;;;;;4880397;29;20048;-76
2022/06/15 06:46:55;;;;;;;16.05;5.40;;;21.30;99.90;;;;;;4880694;29;20311;-77
2022/06/15 06:49:23;;;;;;;13.18;4.80;;;21.40;99.90;;;;;;4880477;29;20089;-77
2022/06/15 06:51:51;;;;;;;27.70;6.95;;;21.50;99.90;;;;;;4879262;29;20041;-75
2022/06/15 06:54:22;;;;;;;10.93;5.18;;;21.50;99.90;;;;;;4879863;29;20052;-76
2022/06/15 06:56:49;;;;;;;;;;;21.50;99.90;;;;;;4880777;29;20144;-76
2022/06/15 06:59:18;;;;;;;9.57;4.93;;;21.60;99.90;;;;;;4879145;29;19923;-76
2022/06/15 07:01:47;;;;;;;10.63;5.03;;;21.60;99.90;;;;;;4879239;29;20057;-76
2022/06/15 07:04:17;;;;;;;12.57;4.18;;;21.70;99.90;;;;;;4879229;29;20045;-76
2022/06/15 07:06:45;;;;;;;12.43;4.53;;;21.80;99.70;;;;;;4880558;29;20051;-77
2022/06/15 07:09:13;;;;;;;11.45;4.38;;;21.90;99.50;;;;;;4879960;29;20041;-78
2022/06/15 07:11:42;;;;;;;8.75;4.82;;;22.00;99.50;;;;;;4880243;29;20128;-76
2022/06/15 07:14:10;;;;;;;11.35;4.63;;;22.00;99.30;;;;;;4878553;29;20060;-76
2022/06/15 07:16:40;;;;;;;10.85;4.50;;;22.00;98.60;;;;;;4880249;29;20049;-78
2022/06/15 07:19:08;;;;;;;9.65;5.38;;;22.00;98.40;;;;;;4880130;29;20109;-75
2022/06/15 07:21:37;;;;;;;8.18;4.32;;;22.00;98.00;;;;;;4879973;29;20450;-75
2022/06/15 07:24:05;;;;;;;11.25;4.03;;;22.10;98.40;;;;;;4878568;29;20045;-75
2022/06/15 07:26:36;;;;;;;7.82;4.18;;;22.20;98.40;;;;;;4863498;29;20049;-78
2022/06/15 07:29:04;;;;;;;7.10;4.10;;;22.20;97.80;;;;;;4874430;29;20514;-76
2022/06/15 07:31:35;;;;;;;7.93;4.32;;;22.20;96.70;;;;;;4867505;29;20057;-75
2022/06/15 07:34:03;;;;;;;17.40;4.75;;;22.30;96.30;;;;;;4870132;29;20482;-76
2022/06/15 07:36:35;;;;;;;6.82;3.97;;;22.40;96.40;;;;;;4870101;29;20469;-78
2022/06/15 07:39:04;;;;;;;6.60;4.10;;;22.40;95.40;;;;;;4868800;29;20498;-75
2022/06/15 07:41:32;;;;;;;5.50;3.50;;;22.30;94.40;;;;;;4868227;29;20093;-77
2022/06/15 07:44:00;;;;;;;10.65;3.95;;;22.40;93.80;;;;;;4868666;29;20080;-79
2022/06/15 07:46:27;;;;;;;8.45;3.67;;;22.40;93.70;;;;;;4869363;29;20045;-75
2022/06/15 07:51:51;;;;;;;8.95;5.70;;;22.50;91.90;;;;;;4870327;29;20505;-78
2022/06/15 07:54:21;;;;;;;9.05;4.40;;;22.60;91.90;;;;;;4860769;29;20462;-78
2022/06/15 07:56:50;;;;;;;5.18;3.40;;;22.70;92.40;;;;;;4860987;29;20073;-79
2022/06/15 07:59:18;;;;;;;6.13;3.38;;;22.70;91.90;;;;;;4860862;29;20570;-79
2022/06/15 08:01:46;;;;;;;5.18;3.22;;;22.60;89.30;;;;;;4864635;29;20597;-86
2022/06/15 08:04:14;;;;;;;6.72;3.20;;;22.60;88.90;;;;;;4869053;29;20048;-84
2022/06/15 08:06:45;;;;;;;8.07;4.72;;;22.50;90.10;;;;;;4868659;29;20057;-85
2022/06/15 08:09:13;;;;;;;6.05;3.22;;;22.40;89.90;;;;;;4868707;29;20038;-84
2022/06/15 08:14:49;;;;;;;7.07;3.08;;;22.70;88.60;;;;;;4867433;29;20521;-85
2022/06/15 08:17:26;;;;;;;6.55;3.20;;;22.90;88.00;;;;;;4872432;29;20057;-79
2022/06/15 08:20:00;;;;;;;9.75;3.50;;;22.90;87.90;;;;;;4868111;29;20450;-83
2022/06/15 08:22:28;;;;;;;5.40;3.40;;;23.00;87.70;;;;;;4869177;29;20132;-77
2022/06/15 08:24:56;;;;;;;4.03;2.50;;;23.00;85.10;;;;;;4867819;29;20088;-79
2022/06/15 08:27:24;;;;;;;5.47;2.80;;;23.10;84.50;;;;;;4867329;29;20045;-76
2022/06/15 08:29:51;;;;;;;5.20;3.25;;;23.10;84.60;;;;;;4851693;29;20047;-74
2022/06/15 08:32:19;;;;;;;8.88;3.65;;;23.10;84.20;;;;;;4867568;29;20045;-75
2022/06/15 08:34:49;;;;;;;6.07;3.13;;;23.00;85.10;;;;;;4869283;29;20076;-80
2022/06/15 08:37:18;;;;;;;9.57;3.63;;;23.00;83.80;;;;;;4867183;29;20049;-76
2022/06/15 08:39:45;;;;;;;6.75;3.35;;;22.90;84.10;;;;;;4866880;29;20041;-76
2022/06/15 08:42:23;;;;;;;6.00;3.10;;;22.90;85.90;;;;;;4868421;29;20137;-78
2022/06/15 08:45:06;;;;;;;7.25;2.92;;;22.90;83.40;;;;;;4870959;29;20075;-80
2022/06/15 08:47:56;;;;;;;7.95;3.13;;;22.80;86.60;;;;;;4879099;29;20069;-78
2022/06/15 08:50:33;;;;;;;5.85;2.83;;;22.80;85.50;;;;;;4878708;29;20068;-77
2022/06/15 08:53:12;;;;;;;8.77;2.90;;;22.80;85.20;;;;;;4878805;29;20041;-78
2022/06/15 08:55:43;;;;;;;7.10;3.15;;;22.70;85.30;;;;;;4879022;29;20056;-79
2022/06/15 08:58:29;;;;;;;7.30;3.10;;;22.60;84.20;;;;;;4878544;29;20402;-79
2022/06/15 09:01:07;;;;;;;5.80;2.90;;;22.60;85.60;;;;;;4876926;29;20053;-77
2022/06/15 09:04:04;;;;;;;6.47;3.10;;;22.80;84.50;;;;;;4858254;29;20069;-75
2022/06/15 09:07:21;;;;;;;5.32;3.22;;;22.70;84.10;;;;;;4854381;29;20057;-78
2022/06/15 09:10:23;;;;;;;9.23;3.20;;;22.80;84.90;;;;;;4828575;29;20054;-76
2022/06/15 09:13:11;;;;;;;5.95;3.00;;;22.90;89.00;;;;;;4859611;29;20065;-77
2022/06/15 09:15:48;;;;;;;5.30;3.28;;;23.00;85.40;;;;;;4859421;29;20077;-78
2022/06/15 09:18:19;;;;;;;6.70;2.83;;;23.30;84.40;;;;;;4859120;29;20085;-82
2022/06/15 09:21:11;;;;;;;10.98;4.35;;;23.30;83.10;;;;;;4859385;29;20513;-77
2022/06/15 09:23:57;;;;;;;6.30;3.53;;;23.30;83.30;;;;;;4859234;29;20083;-78
2022/06/15 09:26:32;;;;;;;8.07;3.28;;;23.50;87.00;;;;;;4859035;29;20546;-80
2022/06/15 09:29:11;;;;;;;12.85;3.58;;;23.70;83.90;;;;;;4857933;29;20049;-79
2022/06/15 09:31:52;;;;;;;6.50;3.10;;;23.90;83.10;;;;;;4859013;29;20041;-77
2022/06/15 09:34:42;;;;;;;5.93;3.10;;;23.80;83.90;;;;;;4842706;29;20140;-76
2022/06/15 09:37:20;;;;;;;8.00;3.30;;;23.50;80.10;;;;;;4858114;29;20046;-76
2022/06/15 09:39:48;;;;;;;8.98;2.80;;;23.40;80.80;;;;;;4858314;29;20153;-80
2022/06/15 09:42:23;;;;;;;7.00;3.13;;;23.40;81.10;;;;;;4857847;29;20502;-76
2022/06/15 09:45:00;;;;;;;6.80;3.63;;;23.50;81.30;;;;;;4857732;29;20069;-78
2022/06/15 09:47:39;;;;;;;8.10;4.53;;;23.70;81.50;;;;;;4857651;29;20054;-78
2022/06/15 09:50:18;;;;;;;9.88;3.50;;;24.00;83.20;;;;;;4858075;29;20076;-78
2022/06/15 09:53:12;;;;;;;7.32;3.40;;;24.00;83.60;;;;;;4859142;29;20049;-78
2022/06/15 09:55:43;;;;;;;8.00;3.72;;;24.20;80.70;;;;;;4859275;29;20061;-79
2022/06/15 09:58:38;;;;;;;11.30;3.35;;;24.30;82.70;;;;;;4858242;29;20050;-81
2022/06/15 10:01:08;;;;;;;6.03;3.00;;;24.30;83.50;;;;;;4865908;29;20127;-78
2022/06/15 10:03:43;;;;;;;9.32;3.50;;;24.30;81.80;;;;;;4867864;29;20040;-79
2022/06/15 10:06:37;;;;;;;5.57;3.10;;;24.60;81.40;;;;;;4869616;29;20451;-76
2022/06/15 10:09:09;;;;;;;7.57;3.50;;;24.60;77.70;;;;;;4867642;29;20443;-77
2022/06/15 10:11:40;;;;;;;5.30;3.08;;;24.50;78.60;;;;;;4866647;29;20069;-78
2022/06/15 10:14:27;;;;;;;10.48;3.95;;;24.50;79.00;;;;;;4866235;29;20081;-79
2022/06/15 10:17:01;;;;;;;;;;;24.70;78.50;;;;;;4869720;29;20038;-80
2022/06/15 10:19:32;;;;;;;7.20;3.53;;;25.00;77.70;;;;;;4851992;29;19952;-82
2022/06/15 10:22:10;;;;;;;10.20;3.45;;;25.00;78.20;;;;;;4864714;29;20391;-81
2022/06/15 10:24:40;;;;;;;11.77;3.50;;;25.00;78.00;;;;;;4860473;29;20113;-80
2022/06/15 10:27:20;;;;;;;7.25;3.50;;;25.10;76.10;;;;;;4865547;29;20486;-82
2022/06/15 10:29:59;;;;;;;8.23;4.35;;;24.80;74.80;;;;;;4869293;29;20110;-80
2022/06/15 10:32:33;;;;;;;8.23;3.45;;;24.70;76.40;;;;;;4867803;29;20045;-82
2022/06/15 10:35:03;;;;;;;5.70;3.33;;;24.90;77.00;;;;;;4868111;29;20406;-82
2022/06/15 10:37:43;;;;;;;;;;;25.30;76.30;;;;;;4863048;29;20053;-82
2022/06/15 10:40:29;;;;;;;5.78;3.20;;;25.50;76.10;;;;;;4858673;29;19973;-83
2022/06/15 10:43:20;;;;;;;5.60;2.70;;;25.60;74.20;;;;;;4869705;29;20129;-83
2022/06/15 10:46:04;;;;;;;6.78;3.08;;;25.60;73.10;;;;;;4857336;29;20044;-82
2022/06/15 10:48:52;;;;;;;5.28;3.08;;;25.50;73.20;;;;;;4862352;29;20053;-81
2022/06/15 10:51:38;;;;;;;6.80;3.10;;;25.60;73.80;;;;;;4872497;29;20045;-83
2022/06/15 11:02:06;;;;;;;6.40;3.13;;;25.80;73.40;;;;;;4845521;29;20057;-81
2022/06/15 11:03:22;;;;;;;10.90;3.30;;;25.90;73.40;;;;;;4873534;29;20049;-81
2022/06/15 11:05:54;;;;;;;9.80;3.60;;;25.70;72.50;;;;;;4869074;29;20412;-82
2022/06/15 11:08:29;;;;;;;5.68;3.25;;;25.70;72.30;;;;;;4862840;29;20049;-79
2022/06/15 11:11:21;;;;;;;5.50;3.33;;;25.90;71.90;;;;;;4860498;29;20121;-81
2022/06/15 11:14:02;;;;;;;6.80;3.30;;;25.80;71.50;;;;;;4873275;29;20057;-80
2022/06/15 11:19:24;;;;;;;8.13;3.55;;;25.80;69.80;;;;;;4861815;29;20043;-83
2022/06/15 11:22:02;;;;;;;4.75;2.90;;;25.80;70.40;;;;;;4860998;29;20069;-78
2022/06/15 11:24:43;;;;;;;8.00;3.45;;;25.80;71.00;;;;;;4860421;29;20371;-75
2022/06/15 11:27:35;;;;;;;5.57;3.53;;;26.10;69.00;;;;;;4862504;29;20057;-81
2022/06/15 11:30:06;;;;;;;10.25;3.50;;;25.90;69.40;;;;;;4878252;29;20056;-76
2022/06/15 11:32:39;;;;;;;7.10;3.47;;;26.10;72.10;;;;;;4878834;29;20109;-79
2022/06/15 11:35:12;;;;;;;5.75;3.35;;;26.40;70.60;;;;;;4878956;29;20048;-79
2022/06/15 11:37:42;;;;;;;8.13;3.70;;;26.40;69.20;;;;;;4879624;29;20045;-77
2022/06/15 11:40:53;;;;;;;6.50;3.35;;;26.20;69.10;;;;;;4878523;29;20502;-84
2022/06/15 11:43:33;;;;;;;9.25;3.28;;;26.20;69.10;;;;;;4876386;29;20057;-76
2022/06/15 11:46:06;;;;;;;6.75;3.85;;;26.40;69.30;;;;;;4879384;29;20041;-79
2022/06/15 11:48:48;;;;;;;7.45;3.30;;;26.70;69.70;;;;;;4879682;29;20466;-82
2022/06/15 11:51:15;;;;;;;6.40;3.08;;;26.60;68.00;;;;;;4878366;29;20069;-79
2022/06/15 11:54:11;;;;;;;6.85;3.28;;;26.80;68.00;;;;;;4866074;29;20113;-84
2022/06/15 11:57:11;;;;;;;5.78;3.20;;;27.20;70.60;;;;;;4829421;29;20099;-77
2022/06/15 11:59:54;;;;;;;5.60;3.30;;;27.40;67.50;;;;;;4860371;29;20481;-78
2022/06/15 12:02:44;;;;;;;8.02;3.30;;;27.20;68.10;;;;;;4865392;29;20438;-77
2022/06/15 12:05:16;;;;;;;;;;;27.20;69.30;;;;;;4879238;29;20041;-84
2022/06/15 12:07:52;;;;;;;6.35;3.78;;;27.30;66.70;;;;;;4878871;29;19924;-81
2022/06/15 12:10:38;;;;;;;12.90;7.97;;;27.40;66.30;;;;;;4879130;29;20052;-82
2022/06/15 12:13:24;;;;;;;13.60;6.47;;;27.50;68.50;;;;;;4877099;29;20570;-81
2022/06/15 12:16:03;;;;;;;7.65;3.58;;;27.10;67.40;;;;;;4872580;29;20057;-77
2022/06/15 12:19:14;;;;;;;9.77;3.20;;;27.20;65.10;;;;;;4869261;29;20110;-77
2022/06/15 12:22:18;;;;;;;7.40;2.95;;;27.10;64.30;;;;;;4844164;29;20152;-81
2022/06/15 12:25:17;;;;;;;6.80;3.30;;;27.10;65.80;;;;;;4832413;29;20533;-80
2022/06/15 12:28:24;;;;;;;9.20;4.38;;;27.60;65.90;;;;;;4859726;29;20060;-81
2022/06/15 12:31:22;;;;;;;8.70;4.15;;;27.80;64.80;;;;;;4831361;29;20692;-82
2022/06/15 12:34:02;;;;;;;6.32;3.63;;;27.90;65.10;;;;;;4858697;29;20060;-79
2022/06/15 12:36:50;;;;;;;7.70;4.13;;;28.00;64.90;;;;;;4858945;29;20069;-79
2022/06/15 12:39:25;;;;;;;10.52;3.90;;;27.80;64.90;;;;;;4860109;29;20045;-82
2022/06/15 12:42:12;;;;;;;12.27;4.50;;;27.70;66.10;;;;;;4867957;29;20432;-78
2022/06/15 12:45:22;;;;;;;8.05;4.32;;;27.70;66.80;;;;;;4859295;29;20609;-80
2022/06/15 12:48:13;;;;;;;9.90;3.60;;;27.90;66.60;;;;;;4838795;29;20061;-80
2022/06/15 12:50:47;;;;;;;8.45;3.13;;;27.90;64.20;;;;;;4839012;29;20049;-79
2022/06/15 12:53:26;;;;;;;9.15;3.75;;;28.10;66.70;;;;;;4855366;29;20520;-76
2022/06/15 12:56:21;;;;;;;7.93;3.20;;;28.30;65.40;;;;;;4858096;29;20466;-77
2022/06/15 12:58:54;;;;;;;11.93;3.20;;;28.00;65.50;;;;;;4870531;29;20454;-78
2022/06/15 13:01:26;;;;;;;7.85;3.88;;;27.80;65.20;;;;;;4878002;29;20097;-77
2022/06/15 13:04:12;;;;;;;8.48;5.03;;;27.70;65.40;;;;;;4863079;29;20125;-80
2022/06/15 13:06:42;;;;;;;9.23;3.92;;;27.80;65.10;;;;;;4858839;29;20443;-78
2022/06/15 13:09:20;;;;;;;9.95;4.10;;;28.00;64.30;;;;;;4867415;29;20049;-78
2022/06/15 13:11:51;;;;;;;6.72;3.28;;;28.10;65.60;;;;;;4867688;29;20112;-79
2022/06/15 13:14:23;;;;;;;4.80;2.75;;;28.20;63.90;;;;;;4869335;29;20312;-82
2022/06/15 13:17:11;;;;;;;10.43;3.78;;;28.40;64.80;;;;;;4876944;29;20120;-80
2022/06/15 13:19:43;;;;;;;7.13;3.20;;;28.30;65.00;;;;;;4866165;29;20047;-77
2022/06/15 13:22:28;;;;;;;5.95;3.30;;;28.20;64.80;;;;;;4867639;29;20380;-79
2022/06/15 13:25:03;;;;;;;7.15;3.35;;;28.30;64.50;;;;;;4852175;29;20454;-77
2022/06/15 13:27:37;;;;;;;8.85;3.17;;;28.50;65.10;;;;;;4868509;29;20045;-79
2022/06/15 13:30:54;;;;;;;9.80;3.25;;;28.90;63.70;;;;;;4868272;29;20053;-79
2022/06/15 13:33:48;;;;;;;7.38;4.03;;;28.80;63.60;;;;;;4867703;29;20077;-82
2022/06/15 13:36:20;;;;;;;8.50;4.55;;;28.90;63.70;;;;;;4864412;29;20048;-77
2022/06/15 13:38:49;;;;;;;6.93;3.33;;;29.20;63.50;;;;;;4866255;29;20490;-76